createdAt,value
2017-08-31T00:00:19.152Z,55.80
2017-08-31T00:02:47.443Z,55.80
2017-08-31T00:05:16.086Z,55.80
2017-08-31T00:07:44.343Z,55.80
2017-08-31T00:10:12.551Z,55.80
2017-08-31T00:12:40.829Z,55.80
2017-08-31T00:15:09.085Z,55.80
2017-08-31T00:17:37.316Z,55.80
2017-08-31T00:20:05.364Z,55.80
2017-08-31T00:22:33.599Z,55.80
2017-08-31T00:25:01.853Z,55.80
2017-08-31T00:27:30.134Z,55.80
2017-08-31T00:29:58.609Z,55.80
2017-08-31T00:32:26.680Z,55.80
2017-08-31T00:34:54.723Z,55.80
2017-08-31T00:37:22.795Z,55.80
2017-08-31T00:39:51.029Z,55.90
2017-08-31T00:42:19.289Z,55.90
2017-08-31T00:44:47.365Z,55.80
2017-08-31T00:47:15.589Z,55.80
2017-08-31T00:49:44.002Z,55.90
2017-08-31T00:52:12.234Z,55.90
2017-08-31T00:54:40.499Z,56.50
2017-08-31T00:57:08.587Z,55.90
2017-08-31T00:59:36.814Z,55.90
2017-08-31T01:02:05.070Z,55.80
2017-08-31T01:04:33.340Z,55.90
2017-08-31T01:07:01.588Z,55.80
2017-08-31T01:09:29.808Z,55.90
2017-08-31T01:11:58.102Z,55.90
2017-08-31T01:14:26.357Z,55.90
2017-08-31T01:16:55.385Z,55.90
2017-08-31T01:19:23.629Z,55.90
2017-08-31T01:21:51.892Z,55.90
2017-08-31T01:24:20.111Z,55.90
2017-08-31T01:26:48.362Z,55.90
2017-08-31T01:29:16.584Z,55.90
2017-08-31T01:31:44.805Z,55.90
2017-08-31T01:34:13.191Z,56.10
2017-08-31T01:36:41.411Z,55.90
2017-08-31T01:39:09.680Z,55.90
2017-08-31T01:41:37.921Z,55.90
2017-08-31T01:44:06.186Z,55.90
2017-08-31T01:46:34.444Z,55.90
2017-08-31T01:49:03.007Z,55.90
2017-08-31T01:51:31.254Z,55.90
2017-08-31T01:53:59.470Z,55.90
2017-08-31T01:56:28.527Z,55.90
2017-08-31T01:58:56.774Z,55.90
2017-08-31T02:01:25.005Z,56.70
2017-08-31T02:03:53.281Z,55.90
2017-08-31T02:06:21.545Z,55.90
2017-08-31T02:08:49.802Z,56.50
2017-08-31T02:11:18.078Z,55.90
2017-08-31T02:13:46.301Z,55.90
2017-08-31T02:16:14.590Z,55.90
2017-08-31T02:18:43.073Z,55.90
2017-08-31T02:21:11.325Z,55.90
2017-08-31T02:23:39.543Z,55.90
2017-08-31T02:26:07.805Z,55.90
2017-08-31T02:28:36.037Z,55.90
2017-08-31T02:31:04.260Z,55.90
2017-08-31T02:33:32.517Z,55.90
2017-08-31T02:36:00.775Z,55.90
2017-08-31T02:38:28.992Z,55.90
2017-08-31T02:40:57.295Z,55.60
2017-08-31T02:43:25.508Z,55.90
2017-08-31T02:45:53.727Z,56.50
2017-08-31T02:48:21.963Z,55.90
2017-08-31T02:50:50.234Z,55.90
2017-08-31T02:53:18.465Z,55.90
2017-08-31T02:55:46.713Z,56.60
2017-08-31T02:58:14.974Z,55.90
2017-08-31T03:00:43.205Z,55.90
2017-08-31T03:03:11.490Z,55.90
2017-08-31T03:05:39.708Z,56.50
2017-08-31T03:08:07.957Z,55.90
2017-08-31T03:10:36.246Z,55.90
2017-08-31T03:13:04.522Z,55.90
2017-08-31T03:15:32.777Z,55.90
2017-08-31T03:18:01.789Z,55.90
2017-08-31T03:20:30.065Z,55.90
2017-08-31T03:22:58.288Z,55.90
2017-08-31T03:25:26.535Z,55.90
2017-08-31T03:27:54.756Z,55.90
2017-08-31T03:30:23.050Z,55.90
2017-08-31T03:32:51.324Z,55.90
2017-08-31T03:35:19.545Z,55.90
2017-08-31T03:37:47.805Z,55.90
2017-08-31T03:40:16.041Z,55.90
2017-08-31T03:42:44.302Z,55.90
2017-08-31T03:45:12.557Z,55.90
2017-08-31T03:47:40.841Z,55.90
2017-08-31T03:50:09.094Z,55.90
2017-08-31T03:52:37.314Z,55.90
2017-08-31T03:55:05.593Z,55.90
2017-08-31T03:57:33.841Z,55.90
2017-08-31T04:00:02.070Z,55.90
2017-08-31T04:02:30.340Z,55.90
2017-08-31T04:04:58.560Z,55.90
2017-08-31T04:07:26.797Z,55.90
2017-08-31T04:09:55.804Z,55.40
2017-08-31T04:12:24.056Z,55.90
2017-08-31T04:14:52.322Z,55.90
2017-08-31T04:17:20.959Z,55.90
2017-08-31T04:19:49.190Z,55.90
2017-08-31T04:22:17.466Z,55.90
2017-08-31T04:24:45.743Z,55.90
2017-08-31T04:27:13.768Z,55.90
2017-08-31T04:29:41.987Z,55.90
2017-08-31T04:32:10.671Z,55.90
2017-08-31T04:34:38.898Z,55.90
2017-08-31T04:37:07.948Z,55.90
2017-08-31T04:39:36.426Z,55.90
2017-08-31T04:42:04.691Z,55.90
2017-08-31T04:44:32.943Z,55.60
2017-08-31T04:47:01.442Z,55.90
2017-08-31T04:49:29.692Z,55.90
2017-08-31T04:51:57.950Z,55.90
2017-08-31T04:54:26.613Z,55.90
2017-08-31T04:56:54.828Z,55.90
2017-08-31T04:59:22.892Z,56.50
2017-08-31T05:01:50.949Z,55.90
2017-08-31T05:04:19.794Z,56.00
2017-08-31T05:06:47.825Z,55.90
2017-08-31T05:09:15.913Z,55.90
2017-08-31T05:11:43.954Z,55.90
2017-08-31T05:14:12.017Z,56.00
2017-08-31T05:16:40.098Z,55.90
2017-08-31T05:19:08.161Z,55.90
2017-08-31T05:21:36.187Z,55.90
2017-08-31T05:24:04.273Z,56.00
2017-08-31T05:26:32.532Z,56.00
2017-08-31T05:29:00.591Z,56.00
2017-08-31T05:31:28.649Z,56.00
2017-08-31T05:33:56.717Z,55.90
2017-08-31T05:36:24.785Z,56.00
2017-08-31T05:38:53.122Z,56.00
2017-08-31T05:41:21.147Z,55.90
2017-08-31T05:43:49.821Z,56.00
2017-08-31T05:46:17.917Z,56.00
2017-08-31T05:48:45.952Z,56.00
2017-08-31T05:51:14.032Z,55.90
2017-08-31T05:53:42.121Z,55.90
2017-08-31T05:56:10.180Z,56.00
2017-08-31T05:58:38.260Z,55.90
2017-08-31T06:01:06.312Z,56.00
2017-08-31T06:03:34.391Z,55.90
2017-08-31T06:06:02.465Z,56.00
2017-08-31T06:08:30.541Z,55.90
2017-08-31T06:10:58.634Z,55.90
2017-08-31T06:13:26.702Z,55.90
2017-08-31T06:15:54.748Z,55.90
2017-08-31T06:18:23.002Z,56.00
2017-08-31T06:20:51.266Z,56.60
2017-08-31T06:23:19.517Z,55.90
2017-08-31T06:25:50.978Z,55.90
2017-08-31T06:28:19.263Z,55.90
2017-08-31T06:30:47.513Z,55.90
2017-08-31T06:33:15.741Z,55.90
2017-08-31T06:35:44.006Z,55.90
2017-08-31T06:38:12.239Z,55.90
2017-08-31T06:40:40.292Z,55.90
2017-08-31T06:43:08.372Z,55.90
2017-08-31T06:45:36.605Z,55.90
2017-08-31T06:48:04.823Z,55.90
2017-08-31T06:50:33.043Z,55.90
2017-08-31T06:53:01.321Z,55.90
2017-08-31T06:55:29.366Z,55.90
2017-08-31T06:57:57.587Z,55.90
2017-08-31T07:00:25.858Z,55.90
2017-08-31T07:02:54.835Z,55.90
2017-08-31T07:05:23.067Z,55.90
2017-08-31T07:07:51.319Z,55.90
2017-08-31T07:10:19.587Z,55.90
2017-08-31T07:12:47.817Z,55.90
2017-08-31T07:15:16.048Z,55.90
2017-08-31T07:17:44.268Z,55.90
2017-08-31T07:20:12.509Z,55.90
2017-08-31T07:22:40.771Z,55.90
2017-08-31T07:25:08.809Z,55.90
2017-08-31T07:27:36.903Z,55.90
2017-08-31T07:30:04.980Z,55.90
2017-08-31T07:32:33.204Z,55.90
2017-08-31T07:35:01.429Z,55.90
2017-08-31T07:37:29.676Z,55.90
2017-08-31T07:39:57.937Z,55.80
2017-08-31T07:42:26.173Z,55.80
2017-08-31T07:44:54.460Z,55.90
2017-08-31T07:47:22.684Z,55.90
2017-08-31T07:49:50.942Z,55.80
2017-08-31T07:52:19.183Z,55.90
2017-08-31T07:54:47.442Z,55.90
2017-08-31T07:57:15.712Z,55.90
2017-08-31T07:59:43.994Z,55.90
2017-08-31T08:02:12.245Z,55.90
2017-08-31T08:04:40.497Z,55.90
2017-08-31T08:07:08.770Z,55.90
2017-08-31T08:09:37.023Z,55.90
2017-08-31T08:12:05.282Z,55.90
2017-08-31T08:14:33.567Z,55.80
2017-08-31T08:17:01.789Z,55.80
2017-08-31T08:19:30.045Z,56.20
2017-08-31T08:21:58.318Z,55.80
2017-08-31T08:24:26.554Z,55.80
2017-08-31T08:26:54.816Z,55.80
2017-08-31T08:29:23.051Z,55.80
2017-08-31T08:31:51.285Z,55.80
2017-08-31T08:34:20.280Z,55.80
2017-08-31T08:36:48.562Z,55.80
2017-08-31T08:39:16.818Z,55.80
2017-08-31T08:41:44.857Z,55.80
2017-08-31T08:44:13.110Z,55.80
2017-08-31T08:46:41.327Z,55.80
2017-08-31T08:49:09.359Z,55.80
2017-08-31T08:51:37.421Z,55.80
2017-08-31T08:54:06.430Z,55.80
2017-08-31T08:56:34.690Z,55.80
2017-08-31T08:59:02.942Z,55.80
2017-08-31T09:01:31.227Z,55.80
2017-08-31T09:03:59.478Z,55.80
2017-08-31T09:06:27.726Z,55.80
2017-08-31T09:08:55.951Z,55.80
2017-08-31T09:11:24.215Z,55.80
2017-08-31T09:13:52.447Z,55.90
2017-08-31T09:16:20.671Z,55.90
2017-08-31T09:18:48.950Z,55.80
2017-08-31T09:21:17.267Z,55.80
2017-08-31T09:23:45.487Z,55.80
2017-08-31T09:26:13.753Z,55.80
2017-08-31T09:28:42.005Z,55.80
2017-08-31T09:31:10.239Z,55.80
2017-08-31T09:33:38.463Z,55.80
2017-08-31T09:36:06.710Z,55.80
2017-08-31T09:38:35.232Z,55.80
2017-08-31T09:41:03.569Z,55.80
2017-08-31T09:43:31.841Z,55.80
2017-08-31T09:46:00.094Z,55.90
2017-08-31T09:48:28.353Z,55.80
2017-08-31T09:50:56.433Z,56.00
2017-08-31T09:53:24.658Z,55.80
2017-08-31T09:55:52.884Z,55.80
2017-08-31T09:58:21.123Z,56.50
2017-08-31T10:00:49.385Z,55.80
2017-08-31T10:03:17.637Z,55.80
2017-08-31T10:05:45.894Z,55.80
2017-08-31T10:08:14.172Z,55.80
2017-08-31T10:10:42.417Z,55.80
2017-08-31T10:13:10.665Z,55.80
2017-08-31T10:15:38.921Z,55.80
2017-08-31T10:18:07.182Z,55.80
2017-08-31T10:20:35.438Z,55.80
2017-08-31T10:23:03.711Z,55.80
2017-08-31T10:25:31.962Z,55.80
2017-08-31T10:28:00.022Z,55.80
2017-08-31T10:30:28.065Z,55.80
2017-08-31T10:32:56.132Z,55.80
2017-08-31T10:35:24.210Z,55.80
2017-08-31T10:37:52.261Z,55.80
2017-08-31T10:40:20.329Z,55.80
2017-08-31T10:42:48.394Z,55.80
2017-08-31T10:45:16.464Z,55.80
2017-08-31T10:47:44.815Z,55.80
2017-08-31T10:50:12.910Z,55.80
2017-08-31T10:52:40.949Z,55.80
2017-08-31T10:55:09.033Z,55.80
2017-08-31T10:57:37.085Z,55.80
2017-08-31T11:00:05.160Z,55.80
2017-08-31T11:02:33.190Z,55.80
2017-08-31T11:05:01.243Z,55.80
2017-08-31T11:07:29.536Z,55.80
2017-08-31T11:09:57.615Z,55.80
2017-08-31T11:12:25.715Z,55.80
2017-08-31T11:14:53.781Z,56.20
2017-08-31T11:17:21.841Z,55.80
2017-08-31T11:19:49.929Z,55.70
2017-08-31T11:22:17.993Z,55.70
2017-08-31T11:24:46.074Z,55.70
2017-08-31T11:27:14.213Z,55.70
2017-08-31T11:29:42.603Z,55.80
2017-08-31T11:32:10.898Z,55.70
2017-08-31T11:34:39.379Z,55.80
2017-08-31T11:37:07.735Z,55.80
2017-08-31T11:39:36.128Z,55.80
2017-08-31T11:42:04.377Z,55.80
2017-08-31T11:44:32.601Z,55.80
2017-08-31T11:47:00.820Z,55.80
2017-08-31T11:49:29.069Z,55.80
2017-08-31T11:51:57.297Z,55.80
2017-08-31T11:54:25.891Z,55.80
2017-08-31T11:56:54.139Z,55.70
2017-08-31T11:59:22.193Z,55.70
2017-08-31T12:01:50.445Z,55.70
2017-08-31T12:04:18.757Z,55.70
2017-08-31T12:06:46.981Z,55.70
2017-08-31T12:09:15.248Z,55.80
2017-08-31T12:11:43.481Z,55.70
2017-08-31T12:14:11.746Z,55.70
2017-08-31T12:16:39.994Z,55.70
2017-08-31T12:19:08.245Z,55.70
2017-08-31T12:21:36.503Z,55.70
2017-08-31T12:24:04.729Z,55.70
2017-08-31T12:26:32.983Z,55.70
2017-08-31T12:29:01.204Z,55.30
2017-08-31T12:31:29.425Z,55.70
2017-08-31T12:33:57.711Z,55.70
2017-08-31T12:36:25.754Z,55.70
2017-08-31T12:38:54.006Z,55.70
2017-08-31T12:41:24.216Z,55.70
2017-08-31T12:43:52.469Z,55.80
2017-08-31T12:46:20.698Z,55.80
2017-08-31T12:48:48.979Z,55.80
2017-08-31T12:51:17.209Z,55.80
2017-08-31T12:53:45.466Z,55.80
2017-08-31T12:56:13.727Z,55.90
2017-08-31T12:58:41.998Z,55.90
2017-08-31T13:01:10.211Z,55.90
2017-08-31T13:03:38.511Z,55.90
2017-08-31T13:06:06.740Z,56.00
2017-08-31T13:08:34.999Z,56.00
2017-08-31T13:11:03.282Z,55.90
2017-08-31T13:13:31.539Z,55.90
2017-08-31T13:15:59.782Z,55.90
2017-08-31T13:18:28.265Z,56.00
2017-08-31T13:20:56.761Z,56.00
2017-08-31T13:23:25.004Z,56.00
2017-08-31T13:25:53.278Z,56.00
2017-08-31T13:28:21.509Z,56.00
2017-08-31T13:30:49.775Z,56.00
2017-08-31T13:33:18.005Z,56.00
2017-08-31T13:35:46.253Z,56.00
2017-08-31T13:38:14.503Z,56.10
2017-08-31T13:40:42.791Z,56.10
2017-08-31T13:43:11.017Z,56.10
2017-08-31T13:45:39.269Z,56.10
2017-08-31T13:48:07.504Z,56.10
2017-08-31T13:50:35.738Z,56.10
2017-08-31T13:53:04.003Z,56.10
2017-08-31T13:55:32.280Z,56.10
2017-08-31T13:58:00.530Z,56.10
2017-08-31T14:00:28.602Z,56.10
2017-08-31T14:02:56.880Z,56.10
2017-08-31T14:05:25.096Z,56.10
2017-08-31T14:07:53.383Z,56.10
2017-08-31T14:10:21.675Z,56.10
2017-08-31T14:12:49.893Z,56.10
2017-08-31T14:15:18.122Z,56.10
2017-08-31T14:17:46.351Z,56.10
2017-08-31T14:20:14.588Z,56.50
2017-08-31T14:22:42.814Z,56.10
2017-08-31T14:25:11.096Z,56.10
2017-08-31T14:27:39.318Z,56.10
2017-08-31T14:30:07.572Z,56.10
2017-08-31T14:32:35.862Z,56.30
2017-08-31T14:35:04.120Z,56.10
2017-08-31T14:37:32.340Z,56.10
2017-08-31T14:40:00.635Z,56.10
2017-08-31T14:42:28.847Z,56.10
2017-08-31T14:44:57.081Z,56.10
2017-08-31T14:47:25.372Z,56.10
2017-08-31T14:49:53.616Z,56.10
2017-08-31T14:52:21.884Z,56.10
2017-08-31T14:54:50.175Z,56.10
2017-08-31T14:57:18.439Z,56.10
2017-08-31T14:59:46.655Z,56.10
2017-08-31T15:02:15.715Z,56.10
2017-08-31T15:04:43.966Z,56.10
2017-08-31T15:07:12.234Z,56.10
2017-08-31T15:09:40.477Z,56.10
2017-08-31T15:12:08.696Z,56.10
2017-08-31T15:14:36.967Z,56.10
2017-08-31T15:17:05.251Z,56.10
2017-08-31T15:19:33.468Z,56.10
2017-08-31T15:22:01.692Z,56.10
2017-08-31T15:24:30.017Z,56.10
2017-08-31T15:26:58.249Z,56.10
2017-08-31T15:29:26.502Z,56.10
2017-08-31T15:31:54.770Z,56.10
2017-08-31T15:34:22.997Z,56.20
2017-08-31T15:36:51.267Z,56.20
2017-08-31T15:39:19.543Z,56.20
2017-08-31T15:41:48.563Z,56.20
2017-08-31T15:44:16.837Z,56.20
2017-08-31T15:46:45.115Z,56.20
2017-08-31T15:49:13.375Z,56.20
2017-08-31T15:51:41.629Z,56.20
2017-08-31T15:54:09.891Z,56.60
2017-08-31T15:56:38.155Z,56.20
2017-08-31T15:59:06.410Z,56.30
2017-08-31T16:01:34.678Z,56.30
2017-08-31T16:04:02.905Z,56.30
2017-08-31T16:06:31.133Z,56.30
2017-08-31T16:08:59.416Z,56.30
2017-08-31T16:11:27.637Z,56.20
2017-08-31T16:13:55.894Z,56.30
2017-08-31T16:16:24.897Z,56.30
2017-08-31T16:18:53.125Z,56.20
2017-08-31T16:21:21.356Z,56.30
2017-08-31T16:23:49.643Z,56.30
2017-08-31T16:26:17.903Z,56.30
2017-08-31T16:28:46.124Z,56.30
2017-08-31T16:31:14.412Z,56.30
2017-08-31T16:33:42.661Z,56.30
2017-08-31T16:36:10.893Z,55.70
2017-08-31T16:38:39.150Z,56.30
2017-08-31T16:41:07.364Z,56.30
2017-08-31T16:43:35.620Z,56.30
2017-08-31T16:46:03.902Z,56.30
2017-08-31T16:48:32.126Z,56.30
2017-08-31T16:51:00.604Z,56.30
2017-08-31T16:53:29.641Z,56.30
2017-08-31T16:55:57.869Z,56.30
2017-08-31T16:58:26.094Z,56.30
2017-08-31T17:00:55.105Z,56.30
2017-08-31T17:03:23.324Z,56.30
2017-08-31T17:05:51.597Z,56.30
2017-08-31T17:08:19.831Z,56.30
2017-08-31T17:10:48.065Z,56.30
2017-08-31T17:13:16.285Z,56.30
2017-08-31T17:15:44.576Z,56.30
2017-08-31T17:18:12.813Z,56.30
2017-08-31T17:20:41.085Z,56.30
2017-08-31T17:23:09.370Z,56.30
2017-08-31T17:25:37.433Z,56.30
2017-08-31T17:28:05.686Z,56.30
2017-08-31T17:30:33.972Z,56.30
2017-08-31T17:33:02.203Z,56.50
2017-08-31T17:35:30.434Z,56.30
2017-08-31T17:37:58.728Z,56.90
2017-08-31T17:40:26.949Z,56.30
2017-08-31T17:42:55.210Z,56.30
2017-08-31T17:45:23.444Z,56.30
2017-08-31T17:47:51.678Z,56.30
2017-08-31T17:50:19.940Z,56.30
2017-08-31T17:52:48.492Z,56.30
2017-08-31T17:55:16.721Z,56.30
2017-08-31T17:57:44.952Z,56.30
2017-08-31T18:00:13.019Z,56.30
2017-08-31T18:02:41.959Z,56.30
2017-08-31T18:05:10.186Z,56.30
2017-08-31T18:07:38.433Z,56.30
2017-08-31T18:10:06.662Z,56.30
2017-08-31T18:12:34.946Z,56.30
2017-08-31T18:15:03.233Z,56.30
2017-08-31T18:17:31.485Z,56.30
2017-08-31T18:19:59.737Z,56.30
2017-08-31T18:22:28.736Z,56.30
2017-08-31T18:24:57.736Z,56.30
2017-08-31T18:27:26.010Z,56.30
2017-08-31T18:29:54.250Z,56.30
2017-08-31T18:32:22.507Z,56.90
2017-08-31T18:34:50.761Z,56.30
2017-08-31T18:37:18.996Z,56.30
2017-08-31T18:39:47.219Z,56.30
2017-08-31T18:42:15.457Z,56.30
2017-08-31T18:44:43.738Z,56.30
2017-08-31T18:47:11.952Z,56.30
2017-08-31T18:49:40.184Z,56.30
2017-08-31T18:52:08.678Z,56.30
2017-08-31T18:54:36.934Z,56.30
2017-08-31T18:57:05.203Z,56.30
2017-08-31T18:59:33.443Z,56.30
2017-08-31T19:02:02.072Z,56.30
2017-08-31T19:04:30.308Z,56.30
2017-08-31T19:06:58.540Z,56.30
2017-08-31T19:09:26.755Z,56.30
2017-08-31T19:11:55.010Z,56.30
2017-08-31T19:14:23.249Z,56.30
2017-08-31T19:16:51.520Z,56.30
2017-08-31T19:19:20.514Z,56.30
2017-08-31T19:21:48.753Z,56.30
2017-08-31T19:24:17.278Z,56.30
2017-08-31T19:26:45.492Z,56.30
2017-08-31T19:29:14.041Z,56.30
2017-08-31T19:31:43.073Z,56.40
2017-08-31T19:34:11.283Z,56.30
2017-08-31T19:36:39.524Z,56.30
2017-08-31T19:39:07.781Z,56.30
2017-08-31T19:41:35.999Z,56.30
2017-08-31T19:44:04.302Z,56.40
2017-08-31T19:46:32.538Z,56.30
2017-08-31T19:49:00.803Z,56.30
2017-08-31T19:51:29.085Z,56.30
2017-08-31T19:53:57.314Z,56.30
2017-08-31T19:56:25.574Z,56.40
2017-08-31T19:58:53.848Z,56.30
2017-08-31T20:01:22.183Z,56.30
2017-08-31T20:03:51.224Z,56.40
2017-08-31T20:06:19.468Z,56.30
2017-08-31T20:08:47.727Z,56.40
2017-08-31T20:11:15.943Z,56.30
2017-08-31T20:13:44.231Z,56.30
2017-08-31T20:16:12.499Z,56.40
2017-08-31T20:18:40.745Z,56.30
2017-08-31T20:21:09.023Z,56.40
2017-08-31T20:23:37.295Z,56.30
2017-08-31T20:26:05.361Z,56.30
2017-08-31T20:28:33.783Z,56.30
2017-08-31T20:31:02.038Z,56.30
2017-08-31T20:33:30.370Z,56.30
2017-08-31T20:35:58.639Z,56.30
2017-08-31T20:38:27.590Z,56.30
2017-08-31T20:40:55.817Z,57.00
2017-08-31T20:43:24.069Z,55.80
2017-08-31T20:45:52.562Z,56.30
2017-08-31T20:48:21.049Z,56.30
2017-08-31T20:50:49.518Z,56.30
2017-08-31T20:53:17.783Z,56.40
2017-08-31T20:55:46.043Z,56.40
2017-08-31T20:58:14.285Z,56.30
2017-08-31T21:00:42.551Z,56.30
2017-08-31T21:03:10.802Z,56.40
2017-08-31T21:05:39.040Z,56.30
2017-08-31T21:08:07.259Z,56.30
2017-08-31T21:10:35.480Z,56.40
2017-08-31T21:13:03.774Z,56.30
2017-08-31T21:15:32.004Z,56.30
2017-08-31T21:18:00.220Z,56.30
2017-08-31T21:20:28.464Z,56.30
2017-08-31T21:22:56.714Z,56.40
2017-08-31T21:25:25.658Z,56.30
2017-08-31T21:27:53.921Z,56.30
2017-08-31T21:30:22.170Z,56.30
2017-08-31T21:32:50.397Z,56.30
2017-08-31T21:35:18.649Z,56.40
2017-08-31T21:37:46.903Z,56.40
2017-08-31T21:40:15.134Z,57.00
2017-08-31T21:42:43.401Z,56.40
2017-08-31T21:45:11.634Z,56.30
2017-08-31T21:47:39.868Z,56.40
2017-08-31T21:50:08.105Z,56.40
2017-08-31T21:52:36.386Z,56.40
2017-08-31T21:55:04.645Z,56.40
2017-08-31T21:57:33.169Z,56.30
2017-08-31T22:00:01.431Z,56.40
2017-08-31T22:02:30.421Z,56.40
2017-08-31T22:04:59.467Z,56.30
2017-08-31T22:07:27.732Z,56.40
2017-08-31T22:09:55.951Z,56.30
2017-08-31T22:12:24.209Z,56.40
2017-08-31T22:14:52.699Z,56.30
2017-08-31T22:17:20.929Z,56.40
2017-08-31T22:19:49.215Z,56.40
2017-08-31T22:22:17.287Z,56.40
2017-08-31T22:24:45.543Z,56.40
2017-08-31T22:27:13.801Z,57.00
2017-08-31T22:29:42.021Z,56.30
2017-08-31T22:32:10.286Z,56.10
2017-08-31T22:34:38.567Z,56.30
2017-08-31T22:37:06.817Z,56.30
2017-08-31T22:39:35.084Z,56.30
2017-08-31T22:42:03.566Z,56.40
2017-08-31T22:44:32.645Z,56.40
2017-08-31T22:47:00.902Z,56.40
2017-08-31T22:49:29.166Z,56.40
2017-08-31T22:51:57.395Z,57.00
2017-08-31T22:54:25.186Z,56.40
2017-08-31T22:56:54.700Z,56.40
2017-08-31T22:59:22.944Z,56.40
2017-08-31T23:01:51.178Z,56.40
2017-08-31T23:04:19.457Z,56.40
2017-08-31T23:06:47.728Z,56.40
2017-08-31T23:09:15.984Z,56.40
2017-08-31T23:11:44.266Z,56.40
2017-08-31T23:14:12.523Z,56.40
2017-08-31T23:16:40.778Z,56.40
2017-08-31T23:19:09.034Z,56.40
2017-08-31T23:21:37.290Z,56.40
2017-08-31T23:24:05.551Z,56.40
2017-08-31T23:26:33.821Z,56.40
2017-08-31T23:29:02.035Z,56.40
2017-08-31T23:31:30.277Z,56.40
2017-08-31T23:33:58.516Z,56.40
2017-08-31T23:36:26.740Z,56.40
2017-08-31T23:38:54.980Z,56.40
2017-08-31T23:41:23.225Z,56.40
2017-08-31T23:43:51.460Z,56.40
2017-08-31T23:46:19.696Z,56.70
2017-08-31T23:48:47.986Z,56.40
2017-08-31T23:51:16.197Z,56.40
2017-08-31T23:53:44.468Z,56.40
2017-08-31T23:56:12.740Z,56.40
2017-08-31T23:58:40.966Z,56.40
